This is the latest recevied weather packets stored in our database for station/object KC0CAU. If no packets are shown the sender has not sent any weather packets the latest 10 day(s).
| Time | Temp. | Humidity | Pressure | Rain* | Wind** | Luminosity | Snow |
|---|---|---|---|---|---|---|---|
| 1777445108 | 0.56° C | 62% | 1021.9 hPa | 0 mm | - | - | - |
| 1777444206 | 0.56° C | 61% | 1021.9 hPa | 0 mm | - | - | - |
| 1777443301 | 1.11° C | 59% | 1021.9 hPa | 0 mm | - | - | - |
| 1777442401 | 1.67° C | 59% | 1021.8 hPa | 0 mm | - | - | - |
| 1777441563 | 1.67° C | 58% | 1021.8 hPa | 0 mm | - | - | - |
| 1777440657 | 1.67° C | 57% | 1021.8 hPa | 0 mm | - | - | - |
| 1777439762 | 1.67° C | 57% | 1021.9 hPa | 0 mm | - | - | - |
| 1777438864 | 2.22° C | 56% | 1021.8 hPa | 0 mm | - | - | - |
| 1777437951 | 2.22° C | 55% | 1021.8 hPa | 0 mm | - | - | - |
| 1777437056 | 2.22° C | 56% | 1022 hPa | 0 mm | - | - | - |
| 1777436150 | 2.78° C | 55% | 1022 hPa | 0 mm | - | - | - |
| 1777435257 | 2.78° C | 54% | 1022 hPa | 0 mm | - | - | - |
| 1777434349 | 3.89° C | 52% | 1022 hPa | 0 mm | - | - | - |
| 1777433449 | 4.44° C | 50% | 1021.8 hPa | 0 mm | - | - | - |
| 1777432548 | 4.44° C | 53% | 1021.9 hPa | 0 mm | - | - | - |
| 1777431648 | 4.44° C | 51% | 1021.8 hPa | 0 mm | - | - | - |
| 1777430748 | 5.56° C | 48% | 1021.8 hPa | 0 mm | - | - | - |
| 1777429872 | 6.11° C | 46% | 1021.6 hPa | 0 mm | - | - | - |
| 1777428956 | 6.67° C | 45% | 1021.5 hPa | 0 mm | - | - | - |
| 1777428056 | 7.22° C | 44% | 1021.3 hPa | 0 mm | - | - | - |
| 1777427167 | 7.22° C | 43% | 1021.1 hPa | 0 mm | - | - | - |
| 1777426260 | 7.78° C | 42% | 1021.1 hPa | 0 mm | - | - | - |
| 1777425352 | 8.33° C | 39% | 1020.9 hPa | 0 mm | - | - | - |
| 1777424444 | 8.89° C | 38% | 1020.8 hPa | 0 mm | - | - | - |
| 1777423542 | 9.44° C | 36% | 1020.7 hPa | 0 mm | - | - | - |
* Rain latest hour (hover to see other rain measurements)
** Current wind speed in m/s (hover to see current wind gust speed)